Time;durP1;ratioP1;P1;durP2;ratioP2;P2;SDS_P1;SDS_P2;PMS_P1;PMS_P2;Temp;Humidity;BMP_temperature;BMP_pressure;BME280_temperature;BME280_humidity;BME280_pressure;Samples;Min_cycle;Max_cycle;Signal;HPM_P1;HPM_P2
2021/12/23 00:01:13;;;;;;;;;;;1.70;91.80;;;;;;5018977;28;19909;-88
2021/12/23 00:03:40;;;;;;;;;;;1.70;91.40;;;;;;5029391;28;19908;-88
2021/12/23 00:06:07;;;;;;;;;;;1.70;91.40;;;;;;5022445;28;20365;-88
2021/12/23 00:08:34;;;;;;;;;;;1.70;91.40;;;;;;5021513;28;19908;-88
2021/12/23 00:11:00;;;;;;;;;;;1.60;91.40;;;;;;5013177;28;20412;-88
2021/12/23 00:13:27;;;;;;;;;;;1.60;91.40;;;;;;5024209;28;20883;-88
2021/12/23 00:23:43;;;;;;;;;;;1.50;91.40;;;;;;5038283;28;19944;-88
2021/12/23 00:26:10;;;;;;;;;;;1.50;91.40;;;;;;5018693;28;19909;-88
2021/12/23 00:28:37;;;;;;;;;;;1.50;91.50;;;;;;5033133;28;19915;-88
2021/12/23 00:31:05;;;;;;;;;;;1.50;91.50;;;;;;5018335;28;20293;-88
2021/12/23 00:33:34;;;;;;;;;;;1.50;91.50;;;;;;5027810;28;20344;-88
2021/12/23 00:36:01;;;;;;;;;;;1.50;91.50;;;;;;5025509;28;20284;-88
2021/12/23 00:38:31;;;;;;;;;;;1.50;91.60;;;;;;5020044;28;20605;-88
2021/12/23 00:41:01;;;;;;;;;;;1.50;91.60;;;;;;5016315;28;19905;-88
2021/12/23 00:43:29;;;;;;;;;;;1.50;91.70;;;;;;5036567;28;20190;-88
2021/12/23 00:45:56;;;;;;;;;;;1.50;91.70;;;;;;5026671;28;19905;-88
2021/12/23 00:48:23;;;;;;;;;;;1.50;91.70;;;;;;5022086;28;20276;-88
2021/12/23 00:50:50;;;;;;;;;;;1.50;91.80;;;;;;5031284;28;19931;-88
2021/12/23 00:53:19;;;;;;;;;;;1.60;91.80;;;;;;5009683;28;20086;-88
2021/12/23 00:55:49;;;;;;;;;;;1.60;91.90;;;;;;5012129;28;19917;-88
2021/12/23 00:58:16;;;;;;;;;;;1.60;91.90;;;;;;5035023;28;19917;-88
2021/12/23 01:00:44;;;;;;;;;;;1.70;92.00;;;;;;5017493;28;20095;-88
2021/12/23 01:03:11;;;;;;;;;;;1.70;92.00;;;;;;5040481;28;19908;-88
2021/12/23 01:05:38;;;;;;;;;;;1.70;92.00;;;;;;5023745;28;19909;-88
2021/12/23 01:08:05;;;;;;;;;;;1.70;92.00;;;;;;5015319;28;19913;-88
2021/12/23 01:10:32;;;;;;;;;;;1.70;92.00;;;;;;5023557;28;19923;-88
2021/12/23 01:13:02;;;;;;;;;;;1.80;92.00;;;;;;5026894;28;20128;-87
2021/12/23 01:18:08;;;;;;;;;;;1.80;92.10;;;;;;5029296;28;19923;-88
2021/12/23 01:20:36;;;;;;;;;;;1.90;92.10;;;;;;5035116;28;19908;-88
2021/12/23 01:23:04;;;;;;;;;;;1.90;92.20;;;;;;5015387;28;19935;-88
2021/12/23 01:25:32;;;;;;;;;;;1.90;92.10;;;;;;5038695;28;19919;-87
2021/12/23 01:27:59;;;;;;;;;;;1.90;92.10;;;;;;5020844;28;19916;-87
2021/12/23 01:30:26;;;;;;;;;;;1.90;92.10;;;;;;5032017;28;20321;-87
2021/12/23 01:32:55;;;;;;;;;;;1.90;92.20;;;;;;5024362;28;20204;-87
2021/12/23 01:35:23;;;;;;;;;;;1.90;92.20;;;;;;5026548;28;20298;-87
2021/12/23 01:37:49;;;;;;;;;;;2.00;92.20;;;;;;5031117;28;19913;-87
2021/12/23 01:40:17;;;;;;;;;;;2.00;92.20;;;;;;5016340;28;19997;-87
2021/12/23 01:42:44;;;;;;;;;;;2.00;92.20;;;;;;5016178;28;20308;-87
2021/12/23 01:45:13;;;;;;;;;;;2.10;92.30;;;;;;5055062;28;20357;-87
2021/12/23 01:47:41;;;;;;;;;;;2.10;92.30;;;;;;5015859;28;19932;-87
2021/12/23 01:50:09;;;;;;;;;;;2.10;92.30;;;;;;5030140;28;19913;-87
2021/12/23 01:52:36;;;;;;;;;;;2.10;92.30;;;;;;5024698;28;19942;-87
2021/12/23 01:55:03;;;;;;;;;;;2.10;92.40;;;;;;5018489;28;19909;-87
2021/12/23 01:57:31;;;;;;;;;;;2.10;92.40;;;;;;5023552;28;20368;-87
2021/12/23 01:59:59;;;;;;;;;;;2.10;92.40;;;;;;5021564;28;20007;-87
2021/12/23 02:02:26;;;;;;;;;;;2.20;92.40;;;;;;5031361;28;19913;-87
2021/12/23 02:04:53;;;;;;;;;;;2.20;92.40;;;;;;5016542;28;19917;-87
2021/12/23 02:07:20;;;;;;;;;;;2.20;92.50;;;;;;5045259;28;20206;-87
2021/12/23 02:09:47;;;;;;;;;;;2.20;92.50;;;;;;5031908;28;20125;-87
2021/12/23 02:12:15;;;;;;;;;;;2.20;92.50;;;;;;5020149;28;19916;-87
2021/12/23 02:14:42;;;;;;;;;;;2.20;92.50;;;;;;5009291;28;19915;-86
2021/12/23 02:17:08;;;;;;;;;;;2.20;92.50;;;;;;5030696;28;19919;-86
2021/12/23 02:19:35;;;;;;;;;;;2.20;92.50;;;;;;5019571;28;19913;-87
2021/12/23 02:22:02;;;;;;;;;;;2.30;92.50;;;;;;5031421;28;19916;-87
2021/12/23 02:24:29;;;;;;;;;;;2.20;92.60;;;;;;5030485;28;20366;-87
2021/12/23 02:26:56;;;;;;;;;;;2.30;92.60;;;;;;5023092;28;19936;-87
2021/12/23 02:29:23;;;;;;;;;;;2.20;92.60;;;;;;5013799;28;19931;-87
2021/12/23 02:31:51;;;;;;;;;;;2.30;92.60;;;;;;5032362;28;20302;-87
2021/12/23 02:34:18;;;;;;;;;;;2.30;92.60;;;;;;5032475;28;19919;-87
2021/12/23 02:36:53;;;;;;;;;;;2.30;92.60;;;;;;5024871;28;20097;-86
2021/12/23 02:39:20;;;;;;;;;;;2.30;92.60;;;;;;5045693;28;19909;-86
2021/12/23 02:41:47;;;;;;;;;;;2.30;92.60;;;;;;5022216;28;19916;-86
2021/12/23 02:44:14;;;;;;;;;;;2.30;92.60;;;;;;5012529;28;20389;-86
2021/12/23 02:46:41;;;;;;;;;;;2.30;92.60;;;;;;5032277;28;19995;-86
2021/12/23 02:49:08;;;;;;;;;;;2.30;92.60;;;;;;5032590;28;19913;-86
2021/12/23 02:51:35;;;;;;;;;;;2.30;92.60;;;;;;5022790;28;19917;-86
2021/12/23 02:54:02;;;;;;;;;;;2.40;92.60;;;;;;5027691;28;19913;-86
2021/12/23 02:56:29;;;;;;;;;;;2.30;92.60;;;;;;5020434;28;19916;-86
2021/12/23 02:58:56;;;;;;;;;;;2.40;92.60;;;;;;5025431;28;20108;-86
2021/12/23 03:01:23;;;;;;;;;;;2.30;92.60;;;;;;5022309;28;20369;-86
2021/12/23 03:03:51;;;;;;;;;;;2.40;92.60;;;;;;5021971;28;19946;-86
2021/12/23 03:06:19;;;;;;;;;;;2.40;92.60;;;;;;5022498;28;19935;-87
2021/12/23 03:08:50;;;;;;;;;;;2.40;92.60;;;;;;5030366;28;19917;-86
2021/12/23 03:11:19;;;;;;;;;;;2.40;92.60;;;;;;5023351;28;19915;-86
2021/12/23 03:13:46;;;;;;;;;;;2.40;92.70;;;;;;5018079;28;19943;-86
2021/12/23 03:16:14;;;;;;;;;;;2.40;92.60;;;;;;5017115;28;20210;-86
2021/12/23 03:18:41;;;;;;;;;;;2.40;92.60;;;;;;5041533;28;19908;-86
2021/12/23 03:21:08;;;;;;;;;;;2.40;92.60;;;;;;5026407;28;19909;-86
2021/12/23 03:23:35;;;;;;;;;;;2.40;92.70;;;;;;5029380;28;19935;-86
2021/12/23 03:26:02;;;;;;;;;;;2.40;92.70;;;;;;5029856;28;19917;-86
2021/12/23 03:28:29;;;;;;;;;;;2.40;92.70;;;;;;5027295;28;19915;-87
2021/12/23 03:30:57;;;;;;;;;;;2.30;92.70;;;;;;5018120;28;20239;-86
2021/12/23 03:33:23;;;;;;;;;;;2.30;92.70;;;;;;5046606;28;20219;-86
2021/12/23 03:35:50;;;;;;;;;;;2.30;92.70;;;;;;5019306;28;19909;-86
2021/12/23 03:38:18;;;;;;;;;;;2.30;92.60;;;;;;5028137;28;20381;-86
2021/12/23 03:40:45;;;;;;;;;;;2.20;92.50;;;;;;5028043;28;20097;-86
2021/12/23 03:43:12;;;;;;;;;;;2.20;92.50;;;;;;5046596;28;19916;-86
2021/12/23 03:45:39;;;;;;;;;;;2.20;92.50;;;;;;5012647;28;19921;-86
2021/12/23 03:48:06;;;;;;;;;;;2.20;92.60;;;;;;5022167;28;19912;-86
2021/12/23 03:50:33;;;;;;;;;;;2.20;92.60;;;;;;5005560;28;19923;-86
2021/12/23 03:53:00;;;;;;;;;;;2.20;92.70;;;;;;5027313;28;19925;-86
2021/12/23 03:55:27;;;;;;;;;;;2.20;92.70;;;;;;5028733;28;20411;-86
2021/12/23 03:57:54;;;;;;;;;;;2.20;92.70;;;;;;5031844;28;20275;-86
2021/12/23 04:00:22;;;;;;;;;;;2.20;92.80;;;;;;5028004;28;19934;-86
2021/12/23 04:02:50;;;;;;;;;;;2.20;92.80;;;;;;5009347;28;19956;-86
2021/12/23 04:05:17;;;;;;;;;;;2.20;92.90;;;;;;5030590;28;19905;-88
2021/12/23 04:07:44;;;;;;;;;;;2.20;92.80;;;;;;5023477;28;20112;-88
2021/12/23 04:10:12;;;;;;;;;;;2.20;92.80;;;;;;5033482;28;19912;-88
2021/12/23 04:12:40;;;;;;;;;;;2.20;92.80;;;;;;5029045;28;20364;-86
2021/12/23 04:15:07;;;;;;;;;;;2.20;92.80;;;;;;5032696;28;19935;-86
2021/12/23 04:17:34;;;;;;;;;;;2.20;92.80;;;;;;5011992;28;19916;-86
2021/12/23 04:20:15;;;;;;;;;;;2.20;92.80;;;;;;5033543;28;20198;-86
2021/12/23 04:22:42;;;;;;;;;;;2.10;92.70;;;;;;5020607;28;20304;-86
2021/12/23 04:25:10;;;;;;;;;;;2.10;92.70;;;;;;5022315;28;20304;-86
2021/12/23 04:27:37;;;;;;;;;;;2.10;92.70;;;;;;5028284;28;19913;-86
2021/12/23 04:30:05;;;;;;;;;;;2.10;92.70;;;;;;5033962;28;20419;-86
2021/12/23 04:32:32;;;;;;;;;;;2.10;92.70;;;;;;5011881;28;20378;-86
2021/12/23 04:34:59;;;;;;;;;;;2.10;92.70;;;;;;5032175;28;19917;-86
2021/12/23 04:37:26;;;;;;;;;;;2.10;92.80;;;;;;5026647;28;19915;-86
2021/12/23 04:39:53;;;;;;;;;;;2.10;92.80;;;;;;5019360;28;19908;-86
2021/12/23 04:42:20;;;;;;;;;;;2.10;92.80;;;;;;5034730;28;19908;-86
2021/12/23 04:44:46;;;;;;;;;;;2.10;92.80;;;;;;5030107;28;20120;-86
2021/12/23 04:47:13;;;;;;;;;;;2.10;92.90;;;;;;5030813;28;19912;-86
2021/12/23 04:49:40;;;;;;;;;;;2.10;92.90;;;;;;5005764;28;20490;-86
2021/12/23 04:52:07;;;;;;;;;;;2.10;92.90;;;;;;5031121;28;19909;-86
2021/12/23 04:54:34;;;;;;;;;;;2.20;93.00;;;;;;5025619;28;19917;-86
2021/12/23 04:57:01;;;;;;;;;;;2.20;93.10;;;;;;5020463;28;20397;-86
2021/12/23 04:59:27;;;;;;;;;;;2.20;93.10;;;;;;5035528;28;19915;-86
2021/12/23 05:01:54;;;;;;;;;;;2.20;93.10;;;;;;5033436;28;20389;-86
2021/12/23 05:04:21;;;;;;;;;;;2.20;93.10;;;;;;5026669;28;19908;-86
2021/12/23 05:06:48;;;;;;;;;;;2.20;93.10;;;;;;5027904;28;20373;-86
2021/12/23 05:09:15;;;;;;;;;;;2.30;93.10;;;;;;5034365;28;19915;-86
2021/12/23 05:11:44;;;;;;;;;;;2.30;93.20;;;;;;5016119;28;20091;-86
2021/12/23 05:14:11;;;;;;;;;;;2.30;93.20;;;;;;5029776;28;19916;-86
2021/12/23 05:16:38;;;;;;;;;;;2.30;93.20;;;;;;5028196;28;19908;-86
2021/12/23 05:19:05;;;;;;;;;;;2.30;93.20;;;;;;5030052;28;20296;-86
2021/12/23 05:21:32;;;;;;;;;;;2.40;93.30;;;;;;5022522;28;19915;-86
2021/12/23 05:23:59;;;;;;;;;;;2.40;93.30;;;;;;5029476;28;19931;-86
2021/12/23 05:26:26;;;;;;;;;;;2.40;93.30;;;;;;5023880;28;19909;-86
2021/12/23 05:28:53;;;;;;;;;;;2.40;93.30;;;;;;5034547;28;20131;-86
2021/12/23 05:31:19;;;;;;;;;;;2.50;93.40;;;;;;5032545;28;19909;-86
2021/12/23 05:33:46;;;;;;;;;;;2.50;93.40;;;;;;5031523;28;19917;-86
2021/12/23 05:36:13;;;;;;;;;;;2.50;93.40;;;;;;5027874;28;19919;-86
2021/12/23 05:38:40;;;;;;;;;;;2.50;93.40;;;;;;5032350;28;20087;-86
2021/12/23 05:41:07;;;;;;;;;;;2.50;93.40;;;;;;5027729;28;20277;-86
2021/12/23 05:43:34;;;;;;;;;;;2.50;93.40;;;;;;5033908;28;19916;-86
2021/12/23 05:46:00;;;;;;;;;;;2.60;93.50;;;;;;5019241;28;19915;-86
2021/12/23 05:48:27;;;;;;;;;;;2.60;93.50;;;;;;5033492;28;19917;-86
2021/12/23 05:50:54;;;;;;;;;;;2.60;93.50;;;;;;5021155;28;20117;-86
2021/12/23 05:53:21;;;;;;;;;;;2.60;93.50;;;;;;5029722;28;19921;-86
2021/12/23 05:55:48;;;;;;;;;;;2.60;93.50;;;;;;5032050;28;20091;-86
2021/12/23 05:58:15;;;;;;;;;;;2.60;93.50;;;;;;5027632;28;19915;-86
2021/12/23 06:00:42;;;;;;;;;;;2.70;93.50;;;;;;5025318;28;20087;-86
2021/12/23 06:03:08;;;;;;;;;;;2.70;93.50;;;;;;5020220;28;19939;-86
2021/12/23 06:05:35;;;;;;;;;;;2.70;93.50;;;;;;5019013;28;19956;-86
2021/12/23 06:08:02;;;;;;;;;;;2.70;93.50;;;;;;5020025;28;19916;-86
2021/12/23 06:10:29;;;;;;;;;;;2.70;93.50;;;;;;5028787;28;19916;-86
2021/12/23 06:12:56;;;;;;;;;;;2.80;93.50;;;;;;5029232;28;20615;-86
2021/12/23 06:15:23;;;;;;;;;;;2.80;93.50;;;;;;5028318;28;19909;-86
2021/12/23 06:17:49;;;;;;;;;;;2.80;93.50;;;;;;5026531;28;20192;-86
2021/12/23 06:20:16;;;;;;;;;;;2.80;93.50;;;;;;5032345;28;19909;-85
2021/12/23 06:22:43;;;;;;;;;;;2.90;93.50;;;;;;5011966;28;20098;-85
2021/12/23 06:25:11;;;;;;;;;;;2.90;93.50;;;;;;5026771;28;19913;-85
2021/12/23 06:27:39;;;;;;;;;;;2.90;93.50;;;;;;5020703;28;19935;-85
2021/12/23 06:30:19;;;;;;;;;;;2.90;93.50;;;;;;5022971;28;19912;-85
2021/12/23 06:32:50;;;;;;;;;;;2.90;93.50;;;;;;5028167;28;20074;-85
2021/12/23 06:35:18;;;;;;;;;;;3.00;93.50;;;;;;5033321;28;19920;-85
2021/12/23 06:37:45;;;;;;;;;;;2.90;93.40;;;;;;5025783;28;19917;-85
2021/12/23 06:40:13;;;;;;;;;;;3.00;93.50;;;;;;5017200;28;19909;-85
2021/12/23 06:42:40;;;;;;;;;;;3.00;93.50;;;;;;5029736;28;19917;-85
2021/12/23 06:45:07;;;;;;;;;;;3.00;93.40;;;;;;5025278;28;19915;-85
2021/12/23 06:47:34;;;;;;;;;;;3.00;93.40;;;;;;5024831;28;20116;-85
2021/12/23 06:50:02;;;;;;;;;;;3.00;93.40;;;;;;5024805;28;19909;-85
2021/12/23 06:52:30;;;;;;;;;;;3.00;93.40;;;;;;5018576;28;19909;-85
2021/12/23 06:54:57;;;;;;;;;;;3.00;93.40;;;;;;5016928;28;19927;-85
2021/12/23 06:57:26;;;;;;;;;;;3.00;93.40;;;;;;5032851;28;19917;-85
2021/12/23 06:59:53;;;;;;;;;;;3.00;93.40;;;;;;5029371;28;20350;-85
2021/12/23 07:02:20;;;;;;;;;;;3.00;93.40;;;;;;5022266;28;19909;-85
2021/12/23 07:04:46;;;;;;;;;;;3.10;93.50;;;;;;5022352;28;20419;-86
2021/12/23 07:07:25;;;;;;;;;;;3.00;93.50;;;;;;5034015;28;19935;-85
2021/12/23 07:09:53;;;;;;;;;;;3.10;93.50;;;;;;5020207;28;19916;-85
2021/12/23 07:12:20;;;;;;;;;;;3.10;93.50;;;;;;5027749;28;19909;-85
2021/12/23 07:14:47;;;;;;;;;;;3.00;93.50;;;;;;5018959;28;20397;-85
2021/12/23 07:17:14;;;;;;;;;;;3.00;93.50;;;;;;5024758;28;19919;-85
2021/12/23 07:19:41;;;;;;;;;;;3.10;93.50;;;;;;5024189;28;20018;-85
2021/12/23 07:22:08;;;;;;;;;;;3.00;93.50;;;;;;5032069;28;20204;-85
2021/12/23 07:24:35;;;;;;;;;;;3.00;93.50;;;;;;5012741;28;20603;-85
2021/12/23 07:27:02;;;;;;;;;;;3.10;93.60;;;;;;5010311;28;19933;-85
2021/12/23 07:29:29;;;;;;;;;;;3.10;93.60;;;;;;5024533;28;19913;-85
2021/12/23 07:31:55;;;;;;;;;;;3.10;93.60;;;;;;5048998;28;19935;-85
2021/12/23 07:34:22;;;;;;;;;;;3.10;93.60;;;;;;5005277;28;19925;-85
2021/12/23 07:36:49;;;;;;;;;;;3.10;93.60;;;;;;5049853;28;20305;-85
2021/12/23 07:39:16;;;;;;;;;;;3.10;93.60;;;;;;5028651;28;19909;-85
2021/12/23 07:41:43;;;;;;;;;;;3.10;93.60;;;;;;5005619;28;20154;-85
2021/12/23 07:44:19;;;;;;;;;;;3.20;93.60;;;;;;5029760;28;19905;-85
2021/12/23 07:46:50;;;;;;;;;;;3.20;93.60;;;;;;5032090;28;20109;-85
2021/12/23 07:49:17;;;;;;;;;;;3.20;93.60;;;;;;5020008;28;20098;-85
2021/12/23 07:51:44;;;;;;;;;;;3.20;93.60;;;;;;5032545;28;19908;-85
2021/12/23 07:54:10;;;;;;;;;;;3.20;93.60;;;;;;5018921;28;19913;-85
2021/12/23 07:56:37;;;;;;;;;;;3.30;93.70;;;;;;5006498;28;20374;-85
2021/12/23 07:59:04;;;;;;;;;;;3.30;93.70;;;;;;5034300;28;19909;-85
2021/12/23 08:01:31;;;;;;;;;;;3.30;93.70;;;;;;5043599;28;20423;-85
2021/12/23 08:03:58;;;;;;;;;;;3.30;93.70;;;;;;5024975;28;20380;-85
2021/12/23 08:06:26;;;;;;;;;;;3.40;93.80;;;;;;5028961;28;20357;-85
2021/12/23 08:08:53;;;;;;;;;;;3.40;93.80;;;;;;5031738;28;19909;-85
2021/12/23 08:11:20;;;;;;;;;;;3.30;93.80;;;;;;5021097;28;20281;-85
2021/12/23 08:13:47;;;;;;;;;;;3.40;93.80;;;;;;5025854;28;20107;-85
2021/12/23 08:16:14;;;;;;;;;;;3.40;93.80;;;;;;5025469;28;19924;-85
2021/12/23 08:18:41;;;;;;;;;;;3.40;93.80;;;;;;5019282;28;20048;-85
2021/12/23 08:21:08;;;;;;;;;;;3.40;93.80;;;;;;5027546;28;20255;-85
2021/12/23 08:23:35;;;;;;;;;;;3.40;93.80;;;;;;5020279;28;20375;-85
2021/12/23 08:26:06;;;;;;;;;;;3.50;93.80;;;;;;5033150;28;19917;-85
2021/12/23 08:28:32;;;;;;;;;;;3.50;93.90;;;;;;5004745;28;20086;-84
2021/12/23 08:31:00;;;;;;;;;;;3.50;93.90;;;;;;5029065;28;19915;-84
2021/12/23 08:33:27;;;;;;;;;;;3.50;93.90;;;;;;5014126;28;19916;-84
2021/12/23 08:35:54;;;;;;;;;;;3.60;94.00;;;;;;5024680;28;19925;-84
2021/12/23 08:38:20;;;;;;;;;;;3.60;94.00;;;;;;5026404;28;19923;-84
2021/12/23 08:40:47;;;;;;;;;;;3.60;94.00;;;;;;5025328;28;19917;-84
2021/12/23 08:43:14;;;;;;;;;;;3.70;94.00;;;;;;5017255;28;19934;-85
2021/12/23 08:45:41;;;;;;;;;;;3.70;94.00;;;;;;5022092;28;20412;-84
2021/12/23 08:48:08;;;;;;;;;;;3.70;94.00;;;;;;5025473;28;20292;-84
2021/12/23 08:50:35;;;;;;;;;;;3.80;94.10;;;;;;5011775;28;19917;-85
2021/12/23 08:53:02;;;;;;;;;;;3.80;94.10;;;;;;5024654;28;19913;-85
2021/12/23 08:55:31;;;;;;;;;;;3.80;94.10;;;;;;5030346;28;19923;-85
2021/12/23 08:57:59;;;;;;;;;;;3.80;94.10;;;;;;5027192;28;19908;-85
2021/12/23 09:00:26;;;;;;;;;;;3.80;94.10;;;;;;5015676;28;19947;-85
2021/12/23 09:02:53;;;;;;;;;;;3.90;94.10;;;;;;5031644;28;19915;-84
2021/12/23 09:05:20;;;;;;;;;;;3.90;94.10;;;;;;5024585;28;19919;-84
2021/12/23 09:07:48;;;;;;;;;;;3.90;94.10;;;;;;5026948;28;20106;-84
2021/12/23 09:10:15;;;;;;;;;;;3.90;94.10;;;;;;5019472;28;19917;-84
2021/12/23 09:12:43;;;;;;;;;;;3.90;94.10;;;;;;5022355;28;20592;-84
2021/12/23 09:15:10;;;;;;;;;;;4.00;94.20;;;;;;5017402;28;19917;-84
2021/12/23 09:17:37;;;;;;;;;;;4.00;94.20;;;;;;5024065;28;20121;-85
2021/12/23 09:20:05;;;;;;;;;;;4.10;94.20;;;;;;5026651;28;19919;-85
2021/12/23 09:22:31;;;;;;;;;;;4.10;94.20;;;;;;5016521;28;20095;-85
2021/12/23 09:25:03;;;;;;;;;;;4.10;94.30;;;;;;5028125;28;19915;-84
2021/12/23 09:33:02;;;;;;;;;;;4.20;94.40;;;;;;5030051;28;19919;-84
2021/12/23 09:35:30;;;;;;;;;;;4.30;94.40;;;;;;5030224;28;19921;-84
2021/12/23 09:37:57;;;;;;;;;;;4.30;94.40;;;;;;5023085;28;19938;-84
2021/12/23 09:40:24;;;;;;;;;;;4.30;94.40;;;;;;5032430;28;19913;-84
2021/12/23 09:42:51;;;;;;;;;;;4.30;94.40;;;;;;5030343;28;19917;-84
2021/12/23 09:45:19;;;;;;;;;;;4.40;94.40;;;;;;5025279;28;19909;-84
2021/12/23 09:47:47;;;;;;;;;;;4.40;94.50;;;;;;5015414;28;20006;-84
2021/12/23 09:50:17;;;;;;;;;;;4.40;94.40;;;;;;5026470;28;19913;-84
2021/12/23 09:52:48;;;;;;;;;;;4.40;94.50;;;;;;5019260;28;20105;-84
2021/12/23 09:55:16;;;;;;;;;;;4.50;94.50;;;;;;5034153;28;19912;-84
2021/12/23 09:57:44;;;;;;;;;;;4.50;94.50;;;;;;5035282;28;20309;-84
2021/12/23 10:00:12;;;;;;;;;;;4.50;94.50;;;;;;5029081;28;20265;-84
2021/12/23 10:02:41;;;;;;;;;;;4.50;94.50;;;;;;5022706;28;20097;-84
2021/12/23 10:05:09;;;;;;;;;;;4.50;94.50;;;;;;5039794;28;20133;-84
2021/12/23 10:07:36;;;;;;;;;;;4.50;94.50;;;;;;5011172;28;20378;-84
2021/12/23 10:10:11;;;;;;;;;;;4.50;94.60;;;;;;5027824;28;20018;-84
2021/12/23 10:31:46;;;;;;;;;;;5.10;95.20;;;;;;5019529;28;20403;-84
2021/12/23 10:37:23;;;;;;;;;;;5.30;95.30;;;;;;5012131;28;20003;-84
2021/12/23 10:39:50;;;;;;;;;;;5.40;95.30;;;;;;5017568;28;19915;-84
2021/12/23 10:42:21;;;;;;;;;;;5.50;95.30;;;;;;5006941;28;20537;-84
2021/12/23 10:44:49;;;;;;;;;;;5.50;95.30;;;;;;5040782;28;19931;-84
2021/12/23 10:47:37;;;;;;;;;;;5.60;95.30;;;;;;5002397;28;19943;-85
2021/12/23 10:50:16;;;;;;;;;;;5.70;95.30;;;;;;5030475;28;20101;-85
2021/12/23 10:52:47;;;;;;;;;;;5.70;95.30;;;;;;5021903;28;20361;-84
2021/12/23 10:58:07;;;;;;;;;;;5.90;95.40;;;;;;5032732;28;20301;-84
2021/12/23 11:00:38;;;;;;;;;;;5.90;95.40;;;;;;5031924;28;19909;-84
2021/12/23 11:03:28;;;;;;;;;;;6.00;95.50;;;;;;5008529;28;20172;-85
2021/12/23 11:06:03;;;;;;;;;;;6.10;95.50;;;;;;5012402;28;19913;-84
2021/12/23 11:41:59;;;;;;;;;;;7.10;93.80;;;;;;5018806;28;20014;-85
2021/12/23 11:44:30;;;;;;;;;;;7.20;93.90;;;;;;5010527;28;20316;-84
2021/12/23 11:47:02;;;;;;;;;;;7.30;94.30;;;;;;5025913;28;19909;-85
2021/12/23 11:49:29;;;;;;;;;;;7.30;94.10;;;;;;5020795;28;20447;-84
2021/12/23 11:51:56;;;;;;;;;;;7.40;93.50;;;;;;5009807;28;19916;-85
2021/12/23 11:54:23;;;;;;;;;;;7.40;93.50;;;;;;5022575;28;20361;-84
2021/12/23 11:56:58;;;;;;;;;;;7.50;93.60;;;;;;5022996;28;20163;-85
2021/12/23 11:59:25;;;;;;;;;;;7.60;93.80;;;;;;5006436;28;19909;-85
2021/12/23 12:01:53;;;;;;;;;;;7.70;93.80;;;;;;5020782;28;20501;-84
2021/12/23 12:04:22;;;;;;;;;;;7.80;93.60;;;;;;5022671;28;19919;-84
2021/12/23 12:06:50;;;;;;;;;;;7.90;94.10;;;;;;5016233;28;19923;-84
2021/12/23 12:09:25;;;;;;;;;;;8.00;94.30;;;;;;5017240;28;20357;-84
2021/12/23 12:11:58;;;;;;;;;;;8.10;94.60;;;;;;5033750;28;19990;-84
2021/12/23 12:14:34;;;;;;;;;;;8.20;93.60;;;;;;5020919;28;20291;-83
2021/12/23 12:17:20;;;;;;;;;;;8.40;93.70;;;;;;5019123;28;19923;-84
2021/12/23 12:19:57;;;;;;;;;;;8.50;93.40;;;;;;5020885;28;19923;-84
2021/12/23 12:22:43;;;;;;;;;;;8.70;93.40;;;;;;5005304;28;19909;-84
2021/12/23 12:25:10;;;;;;;;;;;8.80;93.60;;;;;;5021314;28;19918;-84
2021/12/23 12:27:38;;;;;;;;;;;8.90;93.60;;;;;;5019819;28;19939;-84
2021/12/23 12:30:06;;;;;;;;;;;8.90;93.60;;;;;;5013196;28;19913;-84
2021/12/23 12:32:34;;;;;;;;;;;8.90;93.20;;;;;;5011923;28;19909;-85
2021/12/23 12:35:09;;;;;;;;;;;8.90;93.50;;;;;;5018315;28;19923;-84
2021/12/23 12:37:40;;;;;;;;;;;8.90;91.90;;;;;;5008914;28;20124;-84
2021/12/23 12:40:07;;;;;;;;;;;8.90;92.30;;;;;;5033157;28;19912;-84
2021/12/23 12:42:38;;;;;;;;;;;8.90;93.10;;;;;;5018216;28;19912;-84
2021/12/23 12:45:12;;;;;;;;;;;8.80;91.80;;;;;;5011877;28;19916;-84
2021/12/23 12:47:52;;;;;;;;;;;8.90;91.60;;;;;;5011609;28;20094;-84
2021/12/23 12:50:21;;;;;;;;;;;8.80;91.50;;;;;;5017642;28;19919;-84
2021/12/23 12:52:49;;;;;;;;;;;8.80;91.90;;;;;;5008339;28;20208;-84
2021/12/23 12:55:18;;;;;;;;;;;8.80;92.50;;;;;;5020897;28;19923;-83
2021/12/23 12:57:45;;;;;;;;;;;8.80;92.60;;;;;;5020574;28;20044;-83
2021/12/23 13:00:15;;;;;;;;;;;8.70;93.10;;;;;;5026875;28;19923;-85
2021/12/23 13:02:47;;;;;;;;;;;8.70;93.20;;;;;;5000713;28;20125;-84
2021/12/23 13:05:14;;;;;;;;;;;8.60;93.40;;;;;;5028132;28;20312;-83
2021/12/23 13:07:42;;;;;;;;;;;8.60;93.50;;;;;;5003586;28;20020;-84
2021/12/23 13:10:17;;;;;;;;;;;8.50;93.20;;;;;;5035068;28;19913;-83
2021/12/23 13:12:47;;;;;;;;;;;8.50;93.40;;;;;;5014704;28;20652;-84
2021/12/23 13:15:22;;;;;;;;;;;8.40;93.10;;;;;;5014671;28;19927;-84
2021/12/23 13:17:54;;;;;;;;;;;8.40;91.70;;;;;;5032971;28;19920;-84
2021/12/23 13:20:40;;;;;;;;;;;8.30;92.40;;;;;;5007950;28;20105;-84
2021/12/23 13:23:14;;;;;;;;;;;8.30;92.50;;;;;;5028173;28;19912;-83
2021/12/23 13:25:46;;;;;;;;;;;8.30;92.60;;;;;;5020099;28;19919;-84
2021/12/23 13:28:24;;;;;;;;;;;8.30;92.80;;;;;;5034485;28;20392;-83
2021/12/23 13:30:51;;;;;;;;;;;8.30;92.50;;;;;;5018191;28;19915;-84
2021/12/23 13:33:18;;;;;;;;;;;8.30;93.00;;;;;;5013745;28;20455;-83
2021/12/23 13:35:45;;;;;;;;;;;8.30;93.10;;;;;;5013867;28;19909;-85
2021/12/23 13:38:27;;;;;;;;;;;8.30;93.40;;;;;;5022828;28;20390;-83
2021/12/23 13:40:54;;;;;;;;;;;8.30;93.10;;;;;;5018207;28;19909;-84
2021/12/23 13:43:29;;;;;;;;;;;8.30;93.30;;;;;;5025963;28;19960;-84
2021/12/23 13:46:06;;;;;;;;;;;8.30;93.30;;;;;;5023292;28;19928;-84
2021/12/23 13:48:46;;;;;;;;;;;8.30;93.20;;;;;;5022619;28;19919;-84
2021/12/23 13:51:14;;;;;;;;;;;8.20;93.20;;;;;;5021674;28;19939;-84
2021/12/23 13:53:41;;;;;;;;;;;8.20;93.10;;;;;;5038024;28;19908;-83
2021/12/23 13:56:12;;;;;;;;;;;8.20;93.20;;;;;;5017011;28;19932;-84
2021/12/23 13:58:39;;;;;;;;;;;8.10;93.30;;;;;;5031935;28;20388;-84
2021/12/23 14:01:06;;;;;;;;;;;8.10;93.50;;;;;;5025662;28;19916;-84
2021/12/23 14:03:33;;;;;;;;;;;8.10;93.30;;;;;;5034671;28;19913;-85
2021/12/23 14:06:01;;;;;;;;;;;8.00;93.50;;;;;;5030211;28;19923;-85
2021/12/23 14:08:30;;;;;;;;;;;8.00;92.80;;;;;;5014355;28;19939;-84
2021/12/23 14:10:58;;;;;;;;;;;8.00;93.40;;;;;;5023560;28;20308;-85
2021/12/23 14:13:25;;;;;;;;;;;8.00;93.40;;;;;;5018051;28;20568;-84
2021/12/23 14:15:51;;;;;;;;;;;8.00;93.10;;;;;;5022484;28;20014;-83
2021/12/23 14:23:33;;;;;;;;;;;7.90;93.60;;;;;;5021938;28;19915;-84
2021/12/23 14:26:01;;;;;;;;;;;7.90;93.00;;;;;;5017285;28;19917;-84
2021/12/23 14:28:38;;;;;;;;;;;7.90;93.20;;;;;;5017112;28;19935;-84
2021/12/23 14:31:06;;;;;;;;;;;7.80;93.60;;;;;;5014966;28;20800;-85
2021/12/23 14:33:39;;;;;;;;;;;7.80;93.50;;;;;;5023447;28;19924;-84
2021/12/23 14:36:28;;;;;;;;;;;7.70;93.30;;;;;;5024739;28;19908;-84
2021/12/23 14:38:55;;;;;;;;;;;7.70;93.60;;;;;;5016553;28;19941;-84
2021/12/23 14:41:22;;;;;;;;;;;7.70;93.70;;;;;;5026014;28;20027;-84
2021/12/23 14:43:53;;;;;;;;;;;7.70;93.70;;;;;;5012910;28;19913;-84
2021/12/23 14:46:21;;;;;;;;;;;7.70;93.90;;;;;;5025123;28;20304;-84
2021/12/23 14:51:29;;;;;;;;;;;7.70;93.90;;;;;;5025591;28;19912;-83
2021/12/23 14:54:18;;;;;;;;;;;7.60;93.90;;;;;;4999580;28;20218;-84
2021/12/23 14:56:46;;;;;;;;;;;7.70;94.10;;;;;;5031278;28;19908;-84
2021/12/23 14:59:15;;;;;;;;;;;7.70;94.10;;;;;;5015007;28;20078;-85
2021/12/23 15:01:43;;;;;;;;;;;7.70;93.90;;;;;;5027839;28;19917;-83
2021/12/23 15:04:14;;;;;;;;;;;7.60;93.90;;;;;;5012354;28;20762;-84
2021/12/23 15:06:59;;;;;;;;;;;7.60;94.20;;;;;;5015460;28;19909;-84
2021/12/23 15:09:28;;;;;;;;;;;7.60;94.40;;;;;;5022807;28;19921;-84
2021/12/23 15:11:57;;;;;;;;;;;7.60;94.30;;;;;;5027485;28;19909;-84
2021/12/23 15:14:24;;;;;;;;;;;7.60;94.40;;;;;;5012804;28;19917;-83
2021/12/23 15:17:01;;;;;;;;;;;7.60;94.40;;;;;;5023721;28;20388;-84
2021/12/23 15:19:37;;;;;;;;;;;7.50;94.60;;;;;;5038023;28;19920;-84
2021/12/23 15:22:15;;;;;;;;;;;7.50;94.60;;;;;;5030252;28;19909;-84
2021/12/23 15:24:45;;;;;;;;;;;7.60;94.60;;;;;;5022210;28;19908;-84
2021/12/23 15:27:20;;;;;;;;;;;7.60;94.70;;;;;;5022232;28;19917;-87
2021/12/23 15:29:48;;;;;;;;;;;7.50;94.60;;;;;;5024115;28;19909;-84
2021/12/23 15:32:21;;;;;;;;;;;7.50;94.40;;;;;;5028184;28;20029;-84
2021/12/23 15:34:53;;;;;;;;;;;7.50;94.30;;;;;;5013447;28;20279;-84
2021/12/23 15:37:25;;;;;;;;;;;7.50;94.40;;;;;;5022790;28;20189;-84
2021/12/23 15:39:52;;;;;;;;;;;7.50;94.40;;;;;;5014150;28;19928;-84
2021/12/23 15:42:21;;;;;;;;;;;7.40;94.30;;;;;;5020408;28;20181;-84
2021/12/23 15:44:48;;;;;;;;;;;7.40;94.40;;;;;;5030235;28;20297;-85
2021/12/23 15:47:17;;;;;;;;;;;7.40;94.60;;;;;;5011571;28;19931;-84
2021/12/23 15:49:45;;;;;;;;;;;7.40;94.50;;;;;;5021975;28;19912;-84
2021/12/23 15:52:11;;;;;;;;;;;7.40;94.60;;;;;;5013164;28;20289;-84
2021/12/23 15:54:39;;;;;;;;;;;7.40;94.60;;;;;;5025021;28;19915;-84
2021/12/23 15:57:06;;;;;;;;;;;7.40;94.60;;;;;;5017144;28;19909;-84
2021/12/23 15:59:33;;;;;;;;;;;7.40;94.60;;;;;;5025165;28;19913;-84
2021/12/23 16:02:02;;;;;;;;;;;7.30;94.70;;;;;;5006783;28;19923;-84